Pendleton, OR (97801)

13:39 PST le 07 février 2016 (GMT -0800)
Sun Ridge Estates | | Change Station
CLOSE
Current Station
Stations météorologiques personnelles
Location: Pendleton, OR
Altitude: 1210 ft
Stations météo à proximité

Alt. 1210 ft 45.65 °N, 118.79 °W | Updated 8 minutes ago

Ciel dégagé
Ciel dégagé
52.4 ° F
Paraît 52.4 ° F
N
2.0
Vent Variable Vent de ONO
Gusts 6.0 mph

Aujourd'hui
Haut(e) -- | Bas -- ° F
--% Risque de précip.
Hier
Haut(e) -- | Bas -- ° F
Precip. -- pouce
Pression 30.58 pouce
Visibilité 10.0 Miles terrestres
Nuages Ciel dégagé
Point de rosée 38 ° F
Humidité 58%
Précipitations 0.00 pouce
Profondeur de la couche neigeuse Non disponible.
7:09 AM 5:09 PM
Lune descendante, 1% visible
METAR KPDT 072053Z 31004KT 10SM CLR 10/01 A3057 RMK AO2 SLP354 T01000011 58005
Pression 30.58 pouce
Visibilité 10.0 Miles terrestres
Nuages Ciel dégagé
Point de rosée 38 ° F
Humidité 58%
Précipitations 0.00 pouce
Profondeur de la couche neigeuse Non disponible.
7:09 AM 5:09 PM
Lune descendante, 1% visible
METAR KPDT 072053Z 31004KT 10SM CLR 10/01 A3057 RMK AO2 SLP354 T01000011 58005

10-Day Weather Forecast

Almanac

Astronomie

Feb. 07, 2016 Lever Coucher
Temps réel
Crépuscule civil
Crépuscule nautique
Crépuscule astronomique
Lune
Durée de lumière visible
Longueur du jour
Tomorrow will be .
, % of the Moon is Illuminated

Extrêmes aujourd'hui

State Highs State Lows

Community

WunderPhotos

Upload Photos

1,891,301 Photos téléchargées !

WunderBlog® & News

Nearby

Qualité de l'air

  Qualité de l'air Indice de la qualité de l'air Polluant
Not available.

Épaisseur de neige

Station Depth Altitude

Activité sismique

Ville Distance Mag. Time & Date
Minimum magnitude displayed is 2.5.

Températures des eaux côtières

Lieu Température

Stations

Stations météo à proximité

Emplacement de la station Température Refroidissement éolien Point de rosée Humidité Vent Precip. Alt. Mise à jour Type
                   

Watches & Warnings

There are currently no watches in effect.